createdAt,value
2017-11-28T00:01:53.206Z,1.53
2017-11-28T00:04:22.315Z,1.20
2017-11-28T00:06:50.663Z,1.10
2017-11-28T00:09:19.060Z,1.27
2017-11-28T00:11:47.852Z,1.47
2017-11-28T00:14:16.311Z,0.90
2017-11-28T00:16:44.739Z,1.10
2017-11-28T00:19:12.236Z,1.27
2017-11-28T00:21:39.931Z,1.03
2017-11-28T00:24:08.594Z,1.57
2017-11-28T00:26:36.611Z,1.33
2017-11-28T00:29:04.308Z,1.10
2017-11-28T00:31:32.013Z,1.37
2017-11-28T00:34:00.475Z,1.17
2017-11-28T00:36:28.206Z,1.20
2017-11-28T00:38:56.406Z,1.03
2017-11-28T00:41:24.414Z,0.77
2017-11-28T00:43:51.909Z,0.90
2017-11-28T00:46:20.200Z,1.10
2017-11-28T00:48:47.891Z,0.73
2017-11-28T00:51:16.161Z,1.00
2017-11-28T00:53:44.655Z,0.67
2017-11-28T00:56:12.344Z,1.00
2017-11-28T00:58:40.032Z,1.03
2017-11-28T01:01:08.411Z,0.43
2017-11-28T01:03:36.760Z,1.30
2017-11-28T01:06:04.775Z,0.70
2017-11-28T01:08:32.491Z,1.53
2017-11-28T01:11:00.844Z,0.93
2017-11-28T01:13:28.546Z,0.80
2017-11-28T01:15:56.587Z,1.00
2017-11-28T01:18:24.295Z,1.30
2017-11-28T01:20:52.315Z,0.80
2017-11-28T01:23:20.014Z,1.00
2017-11-28T01:25:47.704Z,0.87
2017-11-28T01:28:15.398Z,1.00
2017-11-28T01:30:43.101Z,0.70
2017-11-28T01:33:10.789Z,1.00
2017-11-28T01:35:38.680Z,1.03
2017-11-28T01:38:06.396Z,0.77
2017-11-28T01:40:34.080Z,1.13
2017-11-28T01:43:01.763Z,0.93
2017-11-28T01:45:30.234Z,1.20
2017-11-28T01:47:58.686Z,1.13
2017-11-28T01:50:26.574Z,0.93
2017-11-28T01:52:54.288Z,1.10
2017-11-28T01:55:21.972Z,1.30
2017-11-28T01:57:49.656Z,0.80
2017-11-28T02:00:17.519Z,0.67
2017-11-28T02:02:45.400Z,1.67
2017-11-28T02:05:13.857Z,0.97
2017-11-28T02:07:41.382Z,1.70
2017-11-28T02:10:09.072Z,1.70
2017-11-28T02:12:36.757Z,1.10
2017-11-28T02:15:05.226Z,1.77
2017-11-28T02:17:32.754Z,1.30
2017-11-28T02:20:00.620Z,1.70
2017-11-28T02:22:28.143Z,1.17
2017-11-28T02:24:55.652Z,1.33
2017-11-28T02:27:23.384Z,1.50
2017-11-28T02:29:51.083Z,1.40
2017-11-28T02:32:18.771Z,1.23
2017-11-28T02:34:47.231Z,1.43
2017-11-28T02:37:14.938Z,1.50
2017-11-28T02:39:42.649Z,1.40
2017-11-28T02:42:10.528Z,1.23
2017-11-28T02:44:38.246Z,1.40
2017-11-28T02:47:05.957Z,1.83
2017-11-28T03:02:58.356Z,1.57
2017-11-28T03:05:26.047Z,1.53
2017-11-28T03:07:54.503Z,1.23
2017-11-28T03:10:39.675Z,1.37
2017-11-28T03:13:07.559Z,1.83
2017-11-28T03:15:37.943Z,1.53
2017-11-28T03:18:06.607Z,1.37
2017-11-28T03:20:35.146Z,1.23
2017-11-28T03:23:09.430Z,1.43
2017-11-28T03:25:37.167Z,1.23
2017-11-28T03:28:22.321Z,1.50
2017-11-28T03:30:56.568Z,1.40
2017-11-28T03:33:24.292Z,1.20
2017-11-28T03:35:52.945Z,1.30
2017-11-28T03:38:20.447Z,1.60
2017-11-28T03:40:48.158Z,1.50
2017-11-28T03:43:15.835Z,1.37
2017-11-28T03:48:36.452Z,1.60
2017-11-28T03:51:04.150Z,2.00
2017-11-28T03:53:31.848Z,2.00
2017-11-28T03:55:59.598Z,1.17
2017-11-28T03:58:27.316Z,1.40
2017-11-28T04:00:55.776Z,1.53
2017-11-28T04:03:23.474Z,1.60
2017-11-28T04:05:51.963Z,1.63
2017-11-28T04:08:19.645Z,1.97
2017-11-28T04:10:47.332Z,1.33
2017-11-28T04:13:15.060Z,2.00
2017-11-28T04:15:42.755Z,2.20
2017-11-28T04:18:10.268Z,2.67
2017-11-28T04:20:37.981Z,2.30
2017-11-28T04:23:05.679Z,1.77
2017-11-28T04:25:33.407Z,1.63
2017-11-28T04:28:01.148Z,1.30
2017-11-28T04:30:28.824Z,1.47
2017-11-28T04:32:56.507Z,1.30
2017-11-28T04:35:24.228Z,1.10
2017-11-28T04:37:52.111Z,1.27
2017-11-28T04:40:19.809Z,1.53
2017-11-28T04:42:47.521Z,1.37
2017-11-28T04:45:15.217Z,1.80
2017-11-28T04:47:42.910Z,1.60
2017-11-28T04:50:11.383Z,1.77
2017-11-28T04:52:39.842Z,1.23
2017-11-28T04:55:07.539Z,2.40
2017-11-28T04:57:35.244Z,2.00
2017-11-28T05:00:02.947Z,1.53
2017-11-28T05:02:31.395Z,1.80
2017-11-28T05:04:59.092Z,2.37
2017-11-28T05:07:27.363Z,2.90
2017-11-28T05:09:55.052Z,3.00
2017-11-28T05:12:22.776Z,2.97
2017-11-28T05:14:50.460Z,3.30
2017-11-28T05:17:18.918Z,4.20
2017-11-28T05:19:46.622Z,2.93
2017-11-28T05:22:14.315Z,3.40
2017-11-28T05:24:42.003Z,3.37
2017-11-28T05:27:09.718Z,3.77
2017-11-28T05:29:37.415Z,4.33
2017-11-28T05:32:05.103Z,5.27
2017-11-28T05:34:32.824Z,4.50
2017-11-28T05:37:00.512Z,4.77
2017-11-28T05:39:28.193Z,4.37
2017-11-28T05:41:56.653Z,4.23
2017-11-28T05:44:24.334Z,4.40
2017-11-28T05:46:52.800Z,4.50
2017-11-28T05:49:20.526Z,5.30
2017-11-28T05:51:48.220Z,4.73
2017-11-28T05:54:15.912Z,4.30
2017-11-28T05:56:44.396Z,4.97
2017-11-28T05:59:12.095Z,5.20
2017-11-28T06:01:39.833Z,4.47
2017-11-28T06:04:07.559Z,5.00
2017-11-28T06:06:35.261Z,4.63
2017-11-28T06:09:03.146Z,4.07
2017-11-28T06:11:30.951Z,6.20
2017-11-28T06:13:58.638Z,5.40
2017-11-28T06:16:27.104Z,3.87
2017-11-28T06:18:55.564Z,4.33
2017-11-28T06:21:23.081Z,5.10
2017-11-28T06:23:50.776Z,4.17
2017-11-28T06:26:18.612Z,4.00
2017-11-28T06:28:46.306Z,4.63
2017-11-28T06:31:14.943Z,5.00
2017-11-28T06:33:42.675Z,5.43
2017-11-28T06:36:10.367Z,5.30
2017-11-28T06:38:38.076Z,4.30
2017-11-28T06:41:05.791Z,5.30
2017-11-28T06:43:34.251Z,4.20
2017-11-28T06:46:02.720Z,4.50
2017-11-28T06:48:30.432Z,6.50
2017-11-28T06:50:58.155Z,4.23
2017-11-28T06:53:26.634Z,5.60
2017-11-28T06:55:55.113Z,4.40
2017-11-28T06:58:23.878Z,5.53
2017-11-28T07:00:51.590Z,6.10
2017-11-28T07:03:19.389Z,5.77
2017-11-28T07:05:47.088Z,6.10
2017-11-28T07:08:14.962Z,5.30
2017-11-28T07:10:43.434Z,4.43
2017-11-28T07:13:11.908Z,4.60
2017-11-28T07:15:40.396Z,5.03
2017-11-28T07:18:08.685Z,5.00
2017-11-28T07:20:37.144Z,4.60
2017-11-28T07:23:04.840Z,4.90
2017-11-28T07:25:32.554Z,4.37
2017-11-28T07:28:00.297Z,3.80
2017-11-28T07:30:28.005Z,5.43
2017-11-28T07:32:56.500Z,4.60
2017-11-28T07:35:24.997Z,5.10
2017-11-28T07:37:52.707Z,4.80
2017-11-28T07:40:20.407Z,5.90
2017-11-28T07:42:48.197Z,6.33
2017-11-28T07:45:16.073Z,4.57
2017-11-28T07:47:43.767Z,5.70
2017-11-28T07:50:11.444Z,4.03
2017-11-28T07:52:39.919Z,5.53
2017-11-28T07:55:07.642Z,4.90
2017-11-28T07:57:35.530Z,2.80
2017-11-28T08:00:03.220Z,5.37
2017-11-28T08:02:31.897Z,4.70
2017-11-28T08:05:00.356Z,5.03
2017-11-28T08:07:28.051Z,1.47
2017-11-28T08:09:56.545Z,5.30
2017-11-28T08:12:24.236Z,4.87
2017-11-28T08:14:51.942Z,5.00
2017-11-28T08:17:19.663Z,4.83
2017-11-28T08:19:47.364Z,4.30
2017-11-28T08:22:16.365Z,6.50
2017-11-28T08:24:45.085Z,4.00
2017-11-28T08:27:12.592Z,3.63
2017-11-28T08:29:40.216Z,3.80
2017-11-28T08:32:07.831Z,5.03
2017-11-28T08:34:36.111Z,5.33
2017-11-28T08:37:03.608Z,4.50
2017-11-28T08:39:31.116Z,4.10
2017-11-28T08:41:58.624Z,4.67
2017-11-28T08:44:26.119Z,3.83
2017-11-28T08:46:53.860Z,4.67
2017-11-28T08:49:21.355Z,5.37
2017-11-28T08:51:49.615Z,5.53
2017-11-28T08:54:17.329Z,4.20
2017-11-28T08:56:45.057Z,4.13
2017-11-28T08:59:13.519Z,3.13
2017-11-28T09:01:41.238Z,3.33
2017-11-28T09:04:08.928Z,4.57
2017-11-28T09:06:36.620Z,4.00
2017-11-28T09:09:05.100Z,2.63
2017-11-28T09:11:34.308Z,4.43
2017-11-28T09:14:02.773Z,5.00
2017-11-28T09:16:31.251Z,4.00
2017-11-28T09:18:58.963Z,3.40
2017-11-28T09:21:26.676Z,3.97
2017-11-28T09:23:55.226Z,2.40
2017-11-28T09:26:22.971Z,4.20
2017-11-28T09:28:50.669Z,4.93
2017-11-28T09:31:18.374Z,4.30
2017-11-28T09:33:46.819Z,3.80
2017-11-28T09:36:14.510Z,4.90
2017-11-28T09:38:43.007Z,4.37
2017-11-28T09:41:10.720Z,3.37
2017-11-28T09:43:38.443Z,4.43
2017-11-28T09:46:06.155Z,3.57
2017-11-28T09:48:33.852Z,4.30
2017-11-28T09:51:01.542Z,4.03
2017-11-28T09:53:29.247Z,3.10
2017-11-28T09:55:57.714Z,2.23
2017-11-28T09:58:25.604Z,5.37
2017-11-28T10:00:54.071Z,4.50
2017-11-28T10:03:21.751Z,4.40
2017-11-28T10:05:50.416Z,4.13
2017-11-28T10:08:18.921Z,4.40
2017-11-28T10:10:47.375Z,5.10
2017-11-28T10:13:16.167Z,4.10
2017-11-28T10:15:43.680Z,5.83
2017-11-28T10:18:11.187Z,3.70
2017-11-28T10:20:39.653Z,5.10
2017-11-28T10:23:07.907Z,3.90
2017-11-28T10:25:35.926Z,5.13
2017-11-28T10:28:05.139Z,3.77
2017-11-28T10:30:32.871Z,3.73
2017-11-28T10:33:00.556Z,5.10
2017-11-28T10:35:28.598Z,4.50
2017-11-28T10:37:56.508Z,4.30
2017-11-28T10:40:24.537Z,6.20
2017-11-28T10:42:52.500Z,5.00
2017-11-28T10:45:20.210Z,6.03
2017-11-28T10:47:47.894Z,6.07
2017-11-28T10:50:15.644Z,3.23
2017-11-28T10:52:44.630Z,4.07
2017-11-28T10:55:12.836Z,4.13
2017-11-28T10:57:40.526Z,4.97
2017-11-28T11:00:09.010Z,2.93
2017-11-28T11:02:37.794Z,3.27
2017-11-28T11:05:06.585Z,3.90
2017-11-28T11:07:34.343Z,4.50
2017-11-28T11:10:02.037Z,3.77
2017-11-28T11:12:29.718Z,3.83
2017-11-28T11:14:57.445Z,3.43
2017-11-28T11:17:25.328Z,3.80
2017-11-28T11:19:53.365Z,4.67
2017-11-28T11:22:21.390Z,4.10
2017-11-28T11:24:49.075Z,4.30
2017-11-28T11:27:16.768Z,2.90
2017-11-28T11:29:45.245Z,4.20
2017-11-28T11:32:13.715Z,4.20
2017-11-28T11:34:41.448Z,3.87
2017-11-28T11:37:09.602Z,4.20
2017-11-28T11:39:37.349Z,4.57
2017-11-28T11:42:05.595Z,3.43
2017-11-28T11:44:33.316Z,3.73
2017-11-28T11:47:01.007Z,3.40
2017-11-28T11:49:28.703Z,3.27
2017-11-28T11:51:57.364Z,2.67
2017-11-28T11:54:25.062Z,3.97
2017-11-28T11:56:52.750Z,3.47
2017-11-28T11:59:20.823Z,3.43
2017-11-28T12:01:49.183Z,3.47
2017-11-28T12:04:18.143Z,3.80
2017-11-28T12:06:46.604Z,3.43
2017-11-28T12:09:14.302Z,3.33
2017-11-28T12:11:41.895Z,2.67
2017-11-28T12:14:09.424Z,3.30
2017-11-28T12:16:37.111Z,2.80
2017-11-28T12:19:04.604Z,2.50
2017-11-28T12:21:32.301Z,2.77
2017-11-28T12:24:00.036Z,2.47
2017-11-28T12:26:29.018Z,1.47
2017-11-28T12:28:57.255Z,3.67
2017-11-28T12:31:25.480Z,2.30
2017-11-28T12:33:53.751Z,2.60
2017-11-28T12:36:22.234Z,2.30
2017-11-28T12:38:50.314Z,3.23
2017-11-28T12:41:18.343Z,2.90
2017-11-28T12:43:46.049Z,2.13
2017-11-28T12:46:14.851Z,2.90
2017-11-28T12:48:42.873Z,2.50
2017-11-28T12:51:10.575Z,2.77
2017-11-28T12:53:39.070Z,2.27
2017-11-28T12:56:06.759Z,2.03
2017-11-28T12:58:34.785Z,1.60
2017-11-28T13:01:03.247Z,2.60
2017-11-28T13:03:31.261Z,2.00
2017-11-28T13:05:59.295Z,0.97
2017-11-28T13:08:27.755Z,2.03
2017-11-28T13:10:55.844Z,2.33
2017-11-28T13:13:24.644Z,2.50
2017-11-28T13:15:53.464Z,3.00
2017-11-28T13:18:21.499Z,2.40
2017-11-28T13:20:49.969Z,2.50
2017-11-28T13:23:18.762Z,3.57
2017-11-28T13:25:47.212Z,2.33
2017-11-28T13:28:14.935Z,3.07
2017-11-28T13:30:42.837Z,2.57
2017-11-28T13:33:10.853Z,2.70
2017-11-28T13:35:38.888Z,2.53
2017-11-28T13:38:06.924Z,2.20
2017-11-28T13:40:34.620Z,2.60
2017-11-28T13:43:02.325Z,2.30
2017-11-28T13:45:29.824Z,2.53
2017-11-28T13:47:57.843Z,2.67
2017-11-28T13:50:26.332Z,1.20
2017-11-28T13:52:54.379Z,2.00
2017-11-28T13:55:22.838Z,2.40
2017-11-28T13:57:50.884Z,1.50
2017-11-28T14:00:18.579Z,1.73
2017-11-28T14:02:46.960Z,1.93
2017-11-28T14:05:14.678Z,1.57
2017-11-28T14:07:42.367Z,1.73
2017-11-28T14:10:10.737Z,1.67
2017-11-28T14:12:39.217Z,1.23
2017-11-28T14:15:07.387Z,1.37
2017-11-28T14:17:35.433Z,1.90
2017-11-28T14:20:05.397Z,1.73
2017-11-28T14:25:32.762Z,1.87
2017-11-28T14:28:02.898Z,1.97
2017-11-28T14:30:33.844Z,3.27
2017-11-28T14:33:02.777Z,1.40
2017-11-28T14:35:36.181Z,2.20
2017-11-28T14:38:03.684Z,2.07
2017-11-28T14:40:32.760Z,2.00
2017-11-28T14:43:10.964Z,1.30
2017-11-28T14:45:39.366Z,2.00
2017-11-28T14:48:07.050Z,1.63
2017-11-28T14:50:40.163Z,1.53
2017-11-28T14:53:07.673Z,2.20
2017-11-28T15:09:11.476Z,1.20
2017-11-28T15:11:45.481Z,2.10
2017-11-28T15:17:30.173Z,1.97
2017-11-28T15:20:04.270Z,1.60
2017-11-28T15:22:35.338Z,2.17
2017-11-28T15:38:22.929Z,1.57
2017-11-28T15:40:51.385Z,2.20
2017-11-28T15:43:19.083Z,2.10
2017-11-28T15:45:46.828Z,1.80
2017-11-28T15:48:14.704Z,1.70
2017-11-28T15:50:43.175Z,1.97
2017-11-28T15:53:11.972Z,2.50
2017-11-28T15:55:40.005Z,3.57
2017-11-28T15:58:07.698Z,1.83
2017-11-28T16:00:36.194Z,1.93
2017-11-28T16:03:03.886Z,1.70
2017-11-28T16:05:31.575Z,2.40
2017-11-28T16:07:59.347Z,2.50
2017-11-28T16:10:27.038Z,2.33
2017-11-28T16:12:55.479Z,2.07
2017-11-28T16:15:23.011Z,2.40
2017-11-28T16:17:50.706Z,3.03
2017-11-28T16:20:18.410Z,2.50
2017-11-28T16:22:46.148Z,1.90
2017-11-28T16:25:13.842Z,2.13
2017-11-28T16:27:41.976Z,3.53
2017-11-28T16:30:09.692Z,3.10
2017-11-28T16:32:37.436Z,2.73
2017-11-28T16:35:05.123Z,3.80
2017-11-28T16:37:32.816Z,2.60
2017-11-28T16:40:00.511Z,3.23
2017-11-28T16:42:28.955Z,3.40
2017-11-28T16:44:57.335Z,2.60
2017-11-28T16:47:26.311Z,3.23
2017-11-28T16:49:54.373Z,2.93
2017-11-28T16:52:22.094Z,2.43
2017-11-28T16:54:50.569Z,2.60
2017-11-28T16:57:19.040Z,2.70
2017-11-28T16:59:47.531Z,1.57
2017-11-28T17:02:15.995Z,2.80
2017-11-28T17:04:43.691Z,2.20
2017-11-28T17:07:11.224Z,1.80
2017-11-28T17:09:39.495Z,2.17
2017-11-28T17:12:08.283Z,2.30
2017-11-28T17:14:36.613Z,1.80
2017-11-28T17:17:04.115Z,2.53
2017-11-28T17:19:31.625Z,2.13
2017-11-28T17:21:59.338Z,2.63
2017-11-28T17:24:28.125Z,1.90
2017-11-28T17:26:57.278Z,3.17
2017-11-28T17:29:24.988Z,2.70
2017-11-28T17:31:53.476Z,2.57
2017-11-28T17:34:21.199Z,2.67
2017-11-28T17:36:49.258Z,2.77
2017-11-28T17:39:16.943Z,2.53
2017-11-28T17:41:44.651Z,2.87
2017-11-28T17:44:12.391Z,2.90
2017-11-28T17:46:40.845Z,2.70
2017-11-28T17:49:08.534Z,2.30
2017-11-28T17:51:37.037Z,2.60
2017-11-28T17:54:04.732Z,3.30
2017-11-28T17:56:32.941Z,2.30
2017-11-28T17:59:01.440Z,2.53
2017-11-28T18:01:28.952Z,2.80
2017-11-28T18:03:56.647Z,3.47
2017-11-28T18:06:25.116Z,3.50
2017-11-28T18:08:52.987Z,1.77
2017-11-28T18:11:20.670Z,2.40
2017-11-28T18:13:48.204Z,3.10
2017-11-28T18:16:15.893Z,3.60
2017-11-28T18:18:43.594Z,3.00
2017-11-28T18:21:11.635Z,2.70
2017-11-28T18:23:39.996Z,2.33
2017-11-28T18:26:08.028Z,2.10
2017-11-28T18:28:36.066Z,3.43
2017-11-28T18:31:03.760Z,4.60
2017-11-28T18:33:31.787Z,6.80
2017-11-28T18:35:59.508Z,5.70
2017-11-28T18:38:27.210Z,13.83
2017-11-28T18:40:55.234Z,12.03
2017-11-28T18:43:23.624Z,4.73
2017-11-28T18:45:52.087Z,6.80
2017-11-28T18:48:20.138Z,3.57
2017-11-28T18:50:47.862Z,23.27
2017-11-28T18:53:15.395Z,5.30
2017-11-28T18:55:43.695Z,5.57
2017-11-28T18:58:12.186Z,3.03
2017-11-28T19:00:39.889Z,3.00
2017-11-28T19:03:07.964Z,3.80
2017-11-28T19:05:36.038Z,8.00
2017-11-28T19:08:03.741Z,4.53
2017-11-28T19:10:31.429Z,4.10
2017-11-28T19:12:59.155Z,5.20
2017-11-28T19:15:28.037Z,3.50
2017-11-28T19:17:56.514Z,3.37
2017-11-28T19:20:24.219Z,4.33
2017-11-28T19:22:51.967Z,3.83
2017-11-28T19:25:19.991Z,4.40
2017-11-28T19:27:47.759Z,3.83
2017-11-28T19:30:15.465Z,3.87
2017-11-28T19:32:43.557Z,4.80
2017-11-28T19:35:11.341Z,3.57
2017-11-28T19:37:39.027Z,3.27
2017-11-28T19:40:06.715Z,2.90
2017-11-28T19:42:35.519Z,3.03
2017-11-28T19:45:03.554Z,3.17
2017-11-28T19:47:31.592Z,2.70
2017-11-28T19:49:59.432Z,2.67
2017-11-28T19:52:27.127Z,2.40
2017-11-28T19:54:55.152Z,2.67
2017-11-28T19:57:22.853Z,2.57
2017-11-28T19:59:50.557Z,2.70
2017-11-28T20:02:19.834Z,2.23
2017-11-28T20:04:49.112Z,3.40
2017-11-28T20:07:16.984Z,3.27
2017-11-28T20:09:45.024Z,3.50
2017-11-28T20:12:13.467Z,4.57
2017-11-28T20:14:41.941Z,3.43
2017-11-28T20:17:10.780Z,3.70
2017-11-28T20:19:38.637Z,3.37
2017-11-28T20:22:06.589Z,3.40
2017-11-28T20:24:34.637Z,4.13
2017-11-28T20:27:02.714Z,4.10
2017-11-28T20:29:31.176Z,4.50
2017-11-28T20:31:58.881Z,4.77
2017-11-28T20:34:26.624Z,5.30
2017-11-28T20:36:54.759Z,4.20
2017-11-28T20:39:22.820Z,4.53
2017-11-28T20:41:51.025Z,4.73
2017-11-28T20:44:19.313Z,5.30
2017-11-28T20:46:47.569Z,5.23
2017-11-28T20:49:20.990Z,5.53
2017-11-28T20:51:49.567Z,5.00
2017-11-28T20:54:17.148Z,5.33
2017-11-28T20:56:44.894Z,5.37
2017-11-28T20:59:13.375Z,5.30
2017-11-28T21:01:41.859Z,4.50
2017-11-28T21:04:10.734Z,5.23
2017-11-28T21:06:38.495Z,5.07
2017-11-28T21:09:06.954Z,4.87
2017-11-28T21:11:34.668Z,5.23
2017-11-28T21:14:02.359Z,5.87
2017-11-28T21:16:30.059Z,5.00
2017-11-28T21:18:58.610Z,5.77
2017-11-28T21:21:26.635Z,7.07
2017-11-28T21:23:54.339Z,5.77
2017-11-28T21:26:22.432Z,5.17
2017-11-28T21:28:50.324Z,5.47
2017-11-28T21:31:19.333Z,4.47
2017-11-28T21:33:47.054Z,3.63
2017-11-28T21:36:14.781Z,3.43
2017-11-28T21:38:42.499Z,3.10
2017-11-28T21:41:11.359Z,3.40
2017-11-28T21:43:39.279Z,2.93
2017-11-28T21:46:07.864Z,3.33
2017-11-28T21:48:35.666Z,2.73
2017-11-28T21:51:04.307Z,2.83
2017-11-28T21:53:32.028Z,2.60
2017-11-28T21:55:59.550Z,2.80
2017-11-28T21:58:27.269Z,3.00
2017-11-28T22:00:56.380Z,2.53
2017-11-28T22:03:24.743Z,2.30
2017-11-28T22:05:53.863Z,2.10
2017-11-28T22:08:22.216Z,2.03
2017-11-28T22:10:51.031Z,1.53
2017-11-28T22:13:19.417Z,1.17
2017-11-28T22:15:47.110Z,0.93
2017-11-28T22:18:15.177Z,1.93
2017-11-28T22:20:43.415Z,1.17
2017-11-28T22:23:11.126Z,1.70
2017-11-28T22:25:39.107Z,1.70
2017-11-28T22:28:07.125Z,1.90
2017-11-28T22:30:35.145Z,1.20
2017-11-28T22:33:03.194Z,1.40
2017-11-28T22:35:30.890Z,1.30
2017-11-28T22:37:59.350Z,2.07
2017-11-28T22:40:27.049Z,1.30
2017-11-28T22:42:55.084Z,2.07
2017-11-28T22:45:23.471Z,1.60
2017-11-28T22:47:51.168Z,2.13
2017-11-28T22:50:18.663Z,1.80
2017-11-28T22:52:46.371Z,2.33
2017-11-28T22:55:15.515Z,2.10
2017-11-28T22:57:43.207Z,1.70
2017-11-28T23:00:11.616Z,1.80
2017-11-28T23:02:40.463Z,2.13
2017-11-28T23:05:08.478Z,2.10
2017-11-28T23:07:36.233Z,2.10
2017-11-28T23:10:05.022Z,2.50
2017-11-28T23:12:33.471Z,2.27
2017-11-28T23:15:01.491Z,2.10
2017-11-28T23:17:29.588Z,1.80
2017-11-28T23:19:57.304Z,2.60
2017-11-28T23:22:25.384Z,2.87
2017-11-28T23:24:53.092Z,2.97
2017-11-28T23:27:20.800Z,4.20
2017-11-28T23:29:48.486Z,2.43
2017-11-28T23:32:16.545Z,3.10
2017-11-28T23:34:44.261Z,2.90
2017-11-28T23:37:13.045Z,3.70
2017-11-28T23:39:40.759Z,3.20
2017-11-28T23:42:08.460Z,3.40
2017-11-28T23:44:36.155Z,3.70
2017-11-28T23:47:04.619Z,3.67
2017-11-28T23:49:32.310Z,4.03
2017-11-28T23:52:00.599Z,4.83
2017-11-28T23:54:28.306Z,4.27
2017-11-28T23:56:56.010Z,4.03
2017-11-28T23:59:24.458Z,4.60
